Clearwater, FL (33767)

11:20 PM EDT on August 29, 2016 (GMT -0400)
North Clearwater Beach | | Change Station

Elev 7 ft 27.99 °N, 82.82 °W | Updated 23 seconds ago

Scattered Clouds
Scattered Clouds
79.2 °F
Feels Like 83 °F
N
0.9
Wind Variable Wind from SSE
Gusts 2.5 mph

Today
High -- | Low -- °F
--% Chance of Precip.
Yesterday
High -- | Low -- °F
Precip. -- in
Pressure 29.91 in
Visibility 10.0 miles
Clouds Scattered Clouds 1800 ft
Heat Index 83 °F
Dew Point 73 °F
Humidity 81%
Rainfall 0.39 in
Snow Depth Not available.
7:08 AM 7:54 PM
Waning Crescent, 5% visible
METAR KPIE 300253Z 10008KT 10SM SCT018 27/24 A2991 RMK AO2 SLP129 T02670239 51007
Pressure 29.91 in
Visibility 10.0 miles
Clouds Scattered Clouds 1800 ft
Heat Index 83 °F
Dew Point 73 °F
Humidity 81%
Rainfall 0.39 in
Snow Depth Not available.
7:08 AM 7:54 PM
Waning Crescent, 5% visible
METAR KPIE 300253Z 10008KT 10SM SCT018 27/24 A2991 RMK AO2 SLP129 T02670239 51007
Tropical Depression Nine was centered about 170 miles west-southwest of Key West, Florida, as of late Monday morning. The depression may struggle a bit in the southern Gulf of Mexico before finally making a Gulf Coast landfall later this week with soaking rain and gusty winds.

This latest system was designated a tropical depression Sunday after a Hurricane Hunter reconnaissance mission finally found a sufficiently organized low-pressure center with collocated shower and thunderstorm activity.

10-Day Weather Forecast

Almanac

Astronomy

Aug. 29, 2016 Rise Set
Actual Time
Civil Twilight
Nautical Twilight
Astronomical Twilight
Moon
Length of Visible Light
Length of Day
Tomorrow will be .
, % of the Moon is Illuminated

Today's Extremes

State Highs State Lows

Community

WunderPhotos

Upload Photos

1,935,773 photos uploaded!

WunderBlog® & News

Nearby

Air Quality

  Air Quality AQ Index Pollutant
Not available.

Snow Depth

Station Depth Elevation

Earthquake Activity

City Distance Mag. Time & Date
Minimum magnitude displayed is 2.5.

Coastal Water Temperatures

Place Temperature

Stations

Nearby Weather Stations

Station Location Temp. Windchill Dew Point Humidity Wind Precip. Elev Updated Type
                   

Watches & Warnings

There are currently no watches in effect.